sensor_id;sensor_type;location;lat;lon;timestamp;temperature;humidity
70830;SHT30;58451;51.550;7.208;2023-03-05T00:01:02;5.25;68.87
70830;SHT30;58451;51.550;7.208;2023-03-05T00:02:36;5.24;69.10
70830;SHT30;58451;51.550;7.208;2023-03-05T00:04:09;5.23;69.42
70830;SHT30;58451;51.550;7.208;2023-03-05T00:05:44;5.21;69.62
70830;SHT30;58451;51.550;7.208;2023-03-05T00:07:16;5.20;70.13
70830;SHT30;58451;51.550;7.208;2023-03-05T00:08:48;5.18;70.33
70830;SHT30;58451;51.550;7.208;2023-03-05T00:10:20;5.16;69.95
70830;SHT30;58451;51.550;7.208;2023-03-05T00:11:52;5.16;69.77
70830;SHT30;58451;51.550;7.208;2023-03-05T00:13:24;5.15;70.18
70830;SHT30;58451;51.550;7.208;2023-03-05T00:14:57;5.13;70.48
70830;SHT30;58451;51.550;7.208;2023-03-05T00:16:28;5.12;70.65
70830;SHT30;58451;51.550;7.208;2023-03-05T00:18:01;5.11;71.03
70830;SHT30;58451;51.550;7.208;2023-03-05T00:19:33;5.11;70.65
70830;SHT30;58451;51.550;7.208;2023-03-05T00:21:16;5.11;70.78
70830;SHT30;58451;51.550;7.208;2023-03-05T00:22:52;5.11;70.88
70830;SHT30;58451;51.550;7.208;2023-03-05T00:24:25;5.10;70.98
70830;SHT30;58451;51.550;7.208;2023-03-05T00:25:59;5.09;70.98
70830;SHT30;58451;51.550;7.208;2023-03-05T00:27:32;5.08;71.68
70830;SHT30;58451;51.550;7.208;2023-03-05T00:29:05;5.06;71.43
70830;SHT30;58451;51.550;7.208;2023-03-05T00:30:40;5.05;71.55
70830;SHT30;58451;51.550;7.208;2023-03-05T00:32:12;5.03;71.80
70830;SHT30;58451;51.550;7.208;2023-03-05T00:33:44;5.03;71.57
70830;SHT30;58451;51.550;7.208;2023-03-05T00:35:16;5.00;71.60
70830;SHT30;58451;51.550;7.208;2023-03-05T00:36:49;4.99;71.65
70830;SHT30;58451;51.550;7.208;2023-03-05T00:38:23;4.99;71.48
70830;SHT30;58451;51.550;7.208;2023-03-05T00:39:55;4.96;71.35
70830;SHT30;58451;51.550;7.208;2023-03-05T00:41:27;4.97;71.53
70830;SHT30;58451;51.550;7.208;2023-03-05T00:42:59;4.95;71.65
70830;SHT30;58451;51.550;7.208;2023-03-05T00:44:31;4.93;71.77
70830;SHT30;58451;51.550;7.208;2023-03-05T00:46:03;4.93;72.00
70830;SHT30;58451;51.550;7.208;2023-03-05T00:47:35;4.91;72.00
70830;SHT30;58451;51.550;7.208;2023-03-05T00:49:09;4.90;71.77
70830;SHT30;58451;51.550;7.208;2023-03-05T00:50:40;4.90;72.28
70830;SHT30;58451;51.550;7.208;2023-03-05T00:52:12;4.88;72.55
70830;SHT30;58451;51.550;7.208;2023-03-05T00:53:44;4.87;72.23
70830;SHT30;58451;51.550;7.208;2023-03-05T00:55:17;4.86;72.75
70830;SHT30;58451;51.550;7.208;2023-03-05T00:56:49;4.84;72.83
70830;SHT30;58451;51.550;7.208;2023-03-05T00:58:23;4.82;72.47
70830;SHT30;58451;51.550;7.208;2023-03-05T00:59:54;4.81;72.63
70830;SHT30;58451;51.550;7.208;2023-03-05T01:01:26;4.80;72.87
70830;SHT30;58451;51.550;7.208;2023-03-05T01:02:59;4.79;73.28
70830;SHT30;58451;51.550;7.208;2023-03-05T01:04:31;4.77;73.03
70830;SHT30;58451;51.550;7.208;2023-03-05T01:06:04;4.78;72.87
70830;SHT30;58451;51.550;7.208;2023-03-05T01:07:39;4.76;73.35
70830;SHT30;58451;51.550;7.208;2023-03-05T01:09:11;4.74;73.17
70830;SHT30;58451;51.550;7.208;2023-03-05T01:10:44;4.75;73.17
70830;SHT30;58451;51.550;7.208;2023-03-05T01:12:15;4.74;73.87
70830;SHT30;58451;51.550;7.208;2023-03-05T01:13:47;4.71;74.20
70830;SHT30;58451;51.550;7.208;2023-03-05T01:15:19;4.70;73.63
70830;SHT30;58451;51.550;7.208;2023-03-05T01:16:52;4.69;73.53
70830;SHT30;58451;51.550;7.208;2023-03-05T01:18:25;4.69;73.93
70830;SHT30;58451;51.550;7.208;2023-03-05T01:19:56;4.67;74.15
70830;SHT30;58451;51.550;7.208;2023-03-05T01:21:29;4.66;74.18
70830;SHT30;58451;51.550;7.208;2023-03-05T01:23:01;4.66;74.02
70830;SHT30;58451;51.550;7.208;2023-03-05T01:24:33;4.66;74.10
70830;SHT30;58451;51.550;7.208;2023-03-05T01:26:05;4.65;74.05
70830;SHT30;58451;51.550;7.208;2023-03-05T01:27:38;4.64;74.22
70830;SHT30;58451;51.550;7.208;2023-03-05T01:29:10;4.64;73.98
70830;SHT30;58451;51.550;7.208;2023-03-05T01:30:44;4.64;74.22
70830;SHT30;58451;51.550;7.208;2023-03-05T01:32:15;4.65;74.03
70830;SHT30;58451;51.550;7.208;2023-03-05T01:33:47;4.65;74.17
70830;SHT30;58451;51.550;7.208;2023-03-05T01:35:24;4.65;74.25
70830;SHT30;58451;51.550;7.208;2023-03-05T01:36:57;4.64;74.27
70830;SHT30;58451;51.550;7.208;2023-03-05T01:38:28;4.63;74.32
70830;SHT30;58451;51.550;7.208;2023-03-05T01:40:00;4.64;74.13
70830;SHT30;58451;51.550;7.208;2023-03-05T01:41:32;4.64;74.28
70830;SHT30;58451;51.550;7.208;2023-03-05T01:45:00;4.62;74.22
70830;SHT30;58451;51.550;7.208;2023-03-05T01:46:42;4.62;74.73
70830;SHT30;58451;51.550;7.208;2023-03-05T01:48:15;4.61;74.40
70830;SHT30;58451;51.550;7.208;2023-03-05T01:49:46;4.61;74.50
70830;SHT30;58451;51.550;7.208;2023-03-05T01:51:19;4.61;74.43
70830;SHT30;58451;51.550;7.208;2023-03-05T01:52:58;4.60;74.38
70830;SHT30;58451;51.550;7.208;2023-03-05T01:54:36;4.60;74.52
70830;SHT30;58451;51.550;7.208;2023-03-05T01:56:16;4.59;74.45
70830;SHT30;58451;51.550;7.208;2023-03-05T01:57:49;4.59;74.35
70830;SHT30;58451;51.550;7.208;2023-03-05T01:59:37;4.59;74.28
70830;SHT30;58451;51.550;7.208;2023-03-05T02:01:12;4.60;74.22
70830;SHT30;58451;51.550;7.208;2023-03-05T02:02:45;4.60;74.23
70830;SHT30;58451;51.550;7.208;2023-03-05T02:04:22;4.59;74.23
70830;SHT30;58451;51.550;7.208;2023-03-05T02:06:01;4.59;74.15
70830;SHT30;58451;51.550;7.208;2023-03-05T02:07:34;4.61;74.15
70830;SHT30;58451;51.550;7.208;2023-03-05T02:09:07;4.60;74.23
70830;SHT30;58451;51.550;7.208;2023-03-05T02:10:44;4.59;74.22
70830;SHT30;58451;51.550;7.208;2023-03-05T02:12:20;4.59;74.13
70830;SHT30;58451;51.550;7.208;2023-03-05T02:13:53;4.60;74.23
70830;SHT30;58451;51.550;7.208;2023-03-05T02:15:24;4.60;74.18
70830;SHT30;58451;51.550;7.208;2023-03-05T02:16:57;4.60;74.13
70830;SHT30;58451;51.550;7.208;2023-03-05T02:18:29;4.58;74.25
70830;SHT30;58451;51.550;7.208;2023-03-05T02:20:03;4.59;74.22
70830;SHT30;58451;51.550;7.208;2023-03-05T02:21:48;4.57;74.10
70830;SHT30;58451;51.550;7.208;2023-03-05T02:23:21;4.57;74.12
70830;SHT30;58451;51.550;7.208;2023-03-05T02:24:59;4.57;74.05
70830;SHT30;58451;51.550;7.208;2023-03-05T02:26:31;4.58;74.02
70830;SHT30;58451;51.550;7.208;2023-03-05T02:29:56;4.56;74.07
70830;SHT30;58451;51.550;7.208;2023-03-05T02:31:28;4.56;74.00
70830;SHT30;58451;51.550;7.208;2023-03-05T02:33:01;4.56;73.97
70830;SHT30;58451;51.550;7.208;2023-03-05T02:34:34;4.57;73.95
70830;SHT30;58451;51.550;7.208;2023-03-05T02:36:07;4.57;73.98
70830;SHT30;58451;51.550;7.208;2023-03-05T02:37:40;4.58;73.90
70830;SHT30;58451;51.550;7.208;2023-03-05T02:39:13;4.56;74.17
70830;SHT30;58451;51.550;7.208;2023-03-05T02:40:45;4.55;74.07
70830;SHT30;58451;51.550;7.208;2023-03-05T02:42:17;4.55;74.03
70830;SHT30;58451;51.550;7.208;2023-03-05T02:43:49;4.53;73.95
70830;SHT30;58451;51.550;7.208;2023-03-05T02:45:21;4.55;73.93
70830;SHT30;58451;51.550;7.208;2023-03-05T02:46:53;4.55;73.90
70830;SHT30;58451;51.550;7.208;2023-03-05T02:48:25;4.56;73.90
70830;SHT30;58451;51.550;7.208;2023-03-05T02:49:57;4.55;74.12
70830;SHT30;58451;51.550;7.208;2023-03-05T02:51:29;4.54;74.13
70830;SHT30;58451;51.550;7.208;2023-03-05T02:53:02;4.54;74.08
70830;SHT30;58451;51.550;7.208;2023-03-05T02:54:34;4.52;74.12
70830;SHT30;58451;51.550;7.208;2023-03-05T02:56:07;4.52;74.18
70830;SHT30;58451;51.550;7.208;2023-03-05T02:57:39;4.51;74.10
70830;SHT30;58451;51.550;7.208;2023-03-05T02:59:11;4.51;74.17
70830;SHT30;58451;51.550;7.208;2023-03-05T03:00:43;4.51;74.20
70830;SHT30;58451;51.550;7.208;2023-03-05T03:02:17;4.51;74.47
70830;SHT30;58451;51.550;7.208;2023-03-05T03:03:49;4.48;74.53
70830;SHT30;58451;51.550;7.208;2023-03-05T03:05:21;4.47;74.57
70830;SHT30;58451;51.550;7.208;2023-03-05T03:06:53;4.45;74.65
70830;SHT30;58451;51.550;7.208;2023-03-05T03:08:25;4.45;74.88
70830;SHT30;58451;51.550;7.208;2023-03-05T03:09:56;4.44;74.85
70830;SHT30;58451;51.550;7.208;2023-03-05T03:11:28;4.43;74.88
70830;SHT30;58451;51.550;7.208;2023-03-05T03:13:00;4.42;74.93
70830;SHT30;58451;51.550;7.208;2023-03-05T03:14:32;4.42;75.22
70830;SHT30;58451;51.550;7.208;2023-03-05T03:16:10;4.42;74.92
70830;SHT30;58451;51.550;7.208;2023-03-05T03:17:44;4.41;75.03
70830;SHT30;58451;51.550;7.208;2023-03-05T03:19:16;4.41;75.07
70830;SHT30;58451;51.550;7.208;2023-03-05T03:20:48;4.40;75.22
70830;SHT30;58451;51.550;7.208;2023-03-05T03:22:20;4.40;75.32
70830;SHT30;58451;51.550;7.208;2023-03-05T03:23:52;4.38;75.35
70830;SHT30;58451;51.550;7.208;2023-03-05T03:25:24;4.38;75.70
70830;SHT30;58451;51.550;7.208;2023-03-05T03:26:55;4.36;75.67
70830;SHT30;58451;51.550;7.208;2023-03-05T03:28:27;4.35;75.63
70830;SHT30;58451;51.550;7.208;2023-03-05T03:29:59;4.34;75.65
70830;SHT30;58451;51.550;7.208;2023-03-05T03:31:34;4.33;75.82
70830;SHT30;58451;51.550;7.208;2023-03-05T03:33:06;4.31;75.73
70830;SHT30;58451;51.550;7.208;2023-03-05T03:34:38;4.29;75.85
70830;SHT30;58451;51.550;7.208;2023-03-05T03:36:10;4.29;75.87
70830;SHT30;58451;51.550;7.208;2023-03-05T03:37:42;4.26;76.20
70830;SHT30;58451;51.550;7.208;2023-03-05T03:39:14;4.26;76.22
70830;SHT30;58451;51.550;7.208;2023-03-05T03:40:47;4.24;76.17
70830;SHT30;58451;51.550;7.208;2023-03-05T03:42:19;4.23;76.22
70830;SHT30;58451;51.550;7.208;2023-03-05T03:43:53;4.23;76.13
70830;SHT30;58451;51.550;7.208;2023-03-05T03:45:24;4.23;76.07
70830;SHT30;58451;51.550;7.208;2023-03-05T03:46:56;4.22;76.13
70830;SHT30;58451;51.550;7.208;2023-03-05T03:48:28;4.22;76.40
70830;SHT30;58451;51.550;7.208;2023-03-05T03:49:59;4.22;76.45
70830;SHT30;58451;51.550;7.208;2023-03-05T03:51:31;4.22;76.48
70830;SHT30;58451;51.550;7.208;2023-03-05T03:53:04;4.21;76.42
70830;SHT30;58451;51.550;7.208;2023-03-05T03:54:36;4.21;76.65
70830;SHT30;58451;51.550;7.208;2023-03-05T03:56:08;4.19;76.72
70830;SHT30;58451;51.550;7.208;2023-03-05T03:57:40;4.19;76.67
70830;SHT30;58451;51.550;7.208;2023-03-05T03:59:13;4.18;76.55
70830;SHT30;58451;51.550;7.208;2023-03-05T04:00:45;4.18;76.83
70830;SHT30;58451;51.550;7.208;2023-03-05T04:02:17;4.18;76.78
70830;SHT30;58451;51.550;7.208;2023-03-05T04:03:49;4.18;76.82
70830;SHT30;58451;51.550;7.208;2023-03-05T04:05:21;4.18;77.03
70830;SHT30;58451;51.550;7.208;2023-03-05T04:06:52;4.15;76.97
70830;SHT30;58451;51.550;7.208;2023-03-05T04:08:24;4.16;77.10
70830;SHT30;58451;51.550;7.208;2023-03-05T04:09:56;4.16;77.25
70830;SHT30;58451;51.550;7.208;2023-03-05T04:11:28;4.15;77.15
70830;SHT30;58451;51.550;7.208;2023-03-05T04:12:59;4.14;77.07
70830;SHT30;58451;51.550;7.208;2023-03-05T04:14:32;4.13;77.22
70830;SHT30;58451;51.550;7.208;2023-03-05T04:16:04;4.14;77.13
70830;SHT30;58451;51.550;7.208;2023-03-05T04:17:36;4.13;77.18
70830;SHT30;58451;51.550;7.208;2023-03-05T04:19:08;4.13;77.03
70830;SHT30;58451;51.550;7.208;2023-03-05T04:20:40;4.14;77.05
70830;SHT30;58451;51.550;7.208;2023-03-05T04:22:12;4.13;76.98
70830;SHT30;58451;51.550;7.208;2023-03-05T04:23:46;4.11;77.02
70830;SHT30;58451;51.550;7.208;2023-03-05T04:25:18;4.11;77.42
70830;SHT30;58451;51.550;7.208;2023-03-05T04:26:54;4.09;77.60
70830;SHT30;58451;51.550;7.208;2023-03-05T04:28:26;4.09;77.43
70830;SHT30;58451;51.550;7.208;2023-03-05T04:29:58;4.09;77.35
70830;SHT30;58451;51.550;7.208;2023-03-05T04:31:31;4.07;77.50
70830;SHT30;58451;51.550;7.208;2023-03-05T04:33:03;4.06;77.77
70830;SHT30;58451;51.550;7.208;2023-03-05T04:34:36;4.06;77.55
70830;SHT30;58451;51.550;7.208;2023-03-05T04:36:08;4.05;77.67
70830;SHT30;58451;51.550;7.208;2023-03-05T04:37:40;4.04;77.52
70830;SHT30;58451;51.550;7.208;2023-03-05T04:39:12;4.03;77.77
70830;SHT30;58451;51.550;7.208;2023-03-05T04:40:44;4.02;77.42
70830;SHT30;58451;51.550;7.208;2023-03-05T04:42:17;4.03;77.30
70830;SHT30;58451;51.550;7.208;2023-03-05T04:43:50;4.03;77.30
70830;SHT30;58451;51.550;7.208;2023-03-05T04:45:22;4.05;77.35
70830;SHT30;58451;51.550;7.208;2023-03-05T04:46:53;4.04;77.28
70830;SHT30;58451;51.550;7.208;2023-03-05T04:48:25;4.05;77.33
70830;SHT30;58451;51.550;7.208;2023-03-05T04:49:57;4.05;77.23
70830;SHT30;58451;51.550;7.208;2023-03-05T04:51:29;4.06;77.23
70830;SHT30;58451;51.550;7.208;2023-03-05T04:53:00;4.07;77.32
70830;SHT30;58451;51.550;7.208;2023-03-05T04:54:33;4.07;77.40
70830;SHT30;58451;51.550;7.208;2023-03-05T04:56:05;4.06;77.28
70830;SHT30;58451;51.550;7.208;2023-03-05T04:57:38;4.07;77.35
70830;SHT30;58451;51.550;7.208;2023-03-05T04:59:10;4.08;77.23
70830;SHT30;58451;51.550;7.208;2023-03-05T05:00:42;4.07;77.23
70830;SHT30;58451;51.550;7.208;2023-03-05T05:02:13;4.07;77.13
70830;SHT30;58451;51.550;7.208;2023-03-05T05:03:45;4.07;77.22
70830;SHT30;58451;51.550;7.208;2023-03-05T05:05:18;4.07;77.13
70830;SHT30;58451;51.550;7.208;2023-03-05T05:06:54;4.06;77.13
70830;SHT30;58451;51.550;7.208;2023-03-05T05:08:27;4.06;77.10
70830;SHT30;58451;51.550;7.208;2023-03-05T05:09:59;4.05;77.03
70830;SHT30;58451;51.550;7.208;2023-03-05T05:11:31;4.06;77.10
70830;SHT30;58451;51.550;7.208;2023-03-05T05:13:03;4.06;77.17
70830;SHT30;58451;51.550;7.208;2023-03-05T05:14:34;4.05;77.12
70830;SHT30;58451;51.550;7.208;2023-03-05T05:16:07;4.05;77.27
70830;SHT30;58451;51.550;7.208;2023-03-05T05:17:39;4.05;77.20
70830;SHT30;58451;51.550;7.208;2023-03-05T05:19:11;4.05;77.13
70830;SHT30;58451;51.550;7.208;2023-03-05T05:20:43;4.05;77.08
70830;SHT30;58451;51.550;7.208;2023-03-05T05:22:15;4.03;77.07
70830;SHT30;58451;51.550;7.208;2023-03-05T05:23:48;4.03;77.15
70830;SHT30;58451;51.550;7.208;2023-03-05T05:25:19;4.03;77.13
70830;SHT30;58451;51.550;7.208;2023-03-05T05:26:54;4.02;77.10
70830;SHT30;58451;51.550;7.208;2023-03-05T05:28:26;4.02;77.13
70830;SHT30;58451;51.550;7.208;2023-03-05T05:29:58;4.01;77.17
70830;SHT30;58451;51.550;7.208;2023-03-05T05:31:30;4.00;77.23
70830;SHT30;58451;51.550;7.208;2023-03-05T05:33:02;3.99;77.17
70830;SHT30;58451;51.550;7.208;2023-03-05T05:34:34;3.97;77.32
70830;SHT30;58451;51.550;7.208;2023-03-05T05:36:07;3.97;77.20
70830;SHT30;58451;51.550;7.208;2023-03-05T05:37:42;3.95;77.30
70830;SHT30;58451;51.550;7.208;2023-03-05T05:39:14;3.95;77.38
70830;SHT30;58451;51.550;7.208;2023-03-05T05:40:46;3.93;77.18
70830;SHT30;58451;51.550;7.208;2023-03-05T05:42:18;3.93;77.22
70830;SHT30;58451;51.550;7.208;2023-03-05T05:43:52;3.93;77.27
70830;SHT30;58451;51.550;7.208;2023-03-05T05:45:24;3.92;77.22
70830;SHT30;58451;51.550;7.208;2023-03-05T05:46:56;3.93;77.27
70830;SHT30;58451;51.550;7.208;2023-03-05T05:48:28;3.92;77.20
70830;SHT30;58451;51.550;7.208;2023-03-05T05:50:02;3.91;77.20
70830;SHT30;58451;51.550;7.208;2023-03-05T05:51:35;3.91;77.22
70830;SHT30;58451;51.550;7.208;2023-03-05T05:53:07;3.91;77.48
70830;SHT30;58451;51.550;7.208;2023-03-05T05:54:39;3.91;77.35
70830;SHT30;58451;51.550;7.208;2023-03-05T05:56:11;3.91;77.25
70830;SHT30;58451;51.550;7.208;2023-03-05T05:57:44;3.91;77.33
70830;SHT30;58451;51.550;7.208;2023-03-05T05:59:16;3.90;77.53
70830;SHT30;58451;51.550;7.208;2023-03-05T06:00:48;3.90;77.60
70830;SHT30;58451;51.550;7.208;2023-03-05T06:02:20;3.90;77.55
70830;SHT30;58451;51.550;7.208;2023-03-05T06:03:52;3.91;77.52
70830;SHT30;58451;51.550;7.208;2023-03-05T06:05:25;3.92;77.40
70830;SHT30;58451;51.550;7.208;2023-03-05T06:06:57;3.91;77.47
70830;SHT30;58451;51.550;7.208;2023-03-05T06:08:30;3.92;77.45
70830;SHT30;58451;51.550;7.208;2023-03-05T06:10:02;3.93;77.38
70830;SHT30;58451;51.550;7.208;2023-03-05T06:11:34;3.93;77.45
70830;SHT30;58451;51.550;7.208;2023-03-05T06:13:08;3.94;77.60
70830;SHT30;58451;51.550;7.208;2023-03-05T06:14:40;3.95;77.58
70830;SHT30;58451;51.550;7.208;2023-03-05T06:16:13;3.95;77.68
70830;SHT30;58451;51.550;7.208;2023-03-05T06:17:48;3.94;77.92
70830;SHT30;58451;51.550;7.208;2023-03-05T06:19:20;3.89;78.18
70830;SHT30;58451;51.550;7.208;2023-03-05T06:20:59;3.88;78.32
70830;SHT30;58451;51.550;7.208;2023-03-05T06:22:35;3.86;78.12
70830;SHT30;58451;51.550;7.208;2023-03-05T06:24:09;3.85;78.27
70830;SHT30;58451;51.550;7.208;2023-03-05T06:25:41;3.82;78.23
70830;SHT30;58451;51.550;7.208;2023-03-05T06:27:13;3.81;78.07
70830;SHT30;58451;51.550;7.208;2023-03-05T06:28:44;3.82;78.00
70830;SHT30;58451;51.550;7.208;2023-03-05T06:30:16;3.82;78.00
70830;SHT30;58451;51.550;7.208;2023-03-05T06:31:48;3.84;78.07
70830;SHT30;58451;51.550;7.208;2023-03-05T06:33:20;3.84;78.07
70830;SHT30;58451;51.550;7.208;2023-03-05T06:34:52;3.85;78.15
70830;SHT30;58451;51.550;7.208;2023-03-05T06:36:24;3.87;78.25
70830;SHT30;58451;51.550;7.208;2023-03-05T06:37:56;3.90;78.13
70830;SHT30;58451;51.550;7.208;2023-03-05T06:39:28;3.91;78.10
70830;SHT30;58451;51.550;7.208;2023-03-05T06:41:02;3.93;78.12
70830;SHT30;58451;51.550;7.208;2023-03-05T06:42:39;3.95;78.15
70830;SHT30;58451;51.550;7.208;2023-03-05T06:44:11;3.96;78.63
70830;SHT30;58451;51.550;7.208;2023-03-05T06:45:46;3.95;78.52
70830;SHT30;58451;51.550;7.208;2023-03-05T06:47:17;3.95;78.88
70830;SHT30;58451;51.550;7.208;2023-03-05T06:48:49;3.94;79.07
70830;SHT30;58451;51.550;7.208;2023-03-05T06:50:22;3.93;78.82
70830;SHT30;58451;51.550;7.208;2023-03-05T06:51:54;3.93;78.75
70830;SHT30;58451;51.550;7.208;2023-03-05T06:53:26;3.95;78.93
70830;SHT30;58451;51.550;7.208;2023-03-05T06:54:58;3.96;78.93
70830;SHT30;58451;51.550;7.208;2023-03-05T06:56:30;3.99;78.82
70830;SHT30;58451;51.550;7.208;2023-03-05T06:58:02;4.01;78.75
70830;SHT30;58451;51.550;7.208;2023-03-05T06:59:34;4.05;78.65
70830;SHT30;58451;51.550;7.208;2023-03-05T07:01:06;4.08;78.68
70830;SHT30;58451;51.550;7.208;2023-03-05T07:02:38;4.10;78.90
70830;SHT30;58451;51.550;7.208;2023-03-05T07:04:11;4.13;78.93
70830;SHT30;58451;51.550;7.208;2023-03-05T07:05:44;4.13;79.00
70830;SHT30;58451;51.550;7.208;2023-03-05T07:07:16;4.13;79.05
70830;SHT30;58451;51.550;7.208;2023-03-05T07:08:48;4.15;78.77
70830;SHT30;58451;51.550;7.208;2023-03-05T07:10:20;4.15;78.85
70830;SHT30;58451;51.550;7.208;2023-03-05T07:11:52;4.16;78.88
70830;SHT30;58451;51.550;7.208;2023-03-05T07:13:24;4.18;78.75
70830;SHT30;58451;51.550;7.208;2023-03-05T07:14:56;4.19;78.80
70830;SHT30;58451;51.550;7.208;2023-03-05T07:16:29;4.21;78.63
70830;SHT30;58451;51.550;7.208;2023-03-05T07:18:03;4.22;78.68
70830;SHT30;58451;51.550;7.208;2023-03-05T07:19:36;4.25;78.77
70830;SHT30;58451;51.550;7.208;2023-03-05T07:21:09;4.27;78.60
70830;SHT30;58451;51.550;7.208;2023-03-05T07:22:46;4.30;78.52
70830;SHT30;58451;51.550;7.208;2023-03-05T07:24:17;4.32;78.60
70830;SHT30;58451;51.550;7.208;2023-03-05T07:25:49;4.34;78.45
70830;SHT30;58451;51.550;7.208;2023-03-05T07:27:21;4.38;78.52
70830;SHT30;58451;51.550;7.208;2023-03-05T07:28:55;4.42;78.62
70830;SHT30;58451;51.550;7.208;2023-03-05T07:30:27;4.49;78.40
70830;SHT30;58451;51.550;7.208;2023-03-05T07:31:59;4.53;78.23
70830;SHT30;58451;51.550;7.208;2023-03-05T07:33:31;4.57;78.20
70830;SHT30;58451;51.550;7.208;2023-03-05T07:35:05;4.62;78.10
70830;SHT30;58451;51.550;7.208;2023-03-05T07:36:38;4.65;78.03
70830;SHT30;58451;51.550;7.208;2023-03-05T07:38:10;4.70;77.95
70830;SHT30;58451;51.550;7.208;2023-03-05T07:39:42;4.72;77.87
70830;SHT30;58451;51.550;7.208;2023-03-05T07:41:17;4.74;77.78
70830;SHT30;58451;51.550;7.208;2023-03-05T07:42:51;4.75;77.70
70830;SHT30;58451;51.550;7.208;2023-03-05T07:44:27;4.74;77.72
70830;SHT30;58451;51.550;7.208;2023-03-05T07:46:02;4.76;77.65
70830;SHT30;58451;51.550;7.208;2023-03-05T07:47:35;4.74;77.77
70830;SHT30;58451;51.550;7.208;2023-03-05T07:49:07;4.74;77.90
70830;SHT30;58451;51.550;7.208;2023-03-05T07:50:39;4.76;77.83
70830;SHT30;58451;51.550;7.208;2023-03-05T07:52:11;4.80;77.75
70830;SHT30;58451;51.550;7.208;2023-03-05T07:53:44;4.82;77.75
70830;SHT30;58451;51.550;7.208;2023-03-05T07:55:17;4.86;77.70
70830;SHT30;58451;51.550;7.208;2023-03-05T07:56:50;4.93;77.65
70830;SHT30;58451;51.550;7.208;2023-03-05T07:58:21;5.01;77.48
70830;SHT30;58451;51.550;7.208;2023-03-05T07:59:53;5.09;77.30
70830;SHT30;58451;51.550;7.208;2023-03-05T08:01:25;5.17;77.23
70830;SHT30;58451;51.550;7.208;2023-03-05T08:02:58;5.24;76.77
70830;SHT30;58451;51.550;7.208;2023-03-05T08:04:30;5.25;76.80
70830;SHT30;58451;51.550;7.208;2023-03-05T08:06:04;5.27;76.67
70830;SHT30;58451;51.550;7.208;2023-03-05T08:07:37;5.29;76.48
70830;SHT30;58451;51.550;7.208;2023-03-05T08:09:08;5.32;76.48
70830;SHT30;58451;51.550;7.208;2023-03-05T08:10:40;5.37;76.40
70830;SHT30;58451;51.550;7.208;2023-03-05T08:12:12;5.43;76.25
70830;SHT30;58451;51.550;7.208;2023-03-05T08:13:45;5.50;76.13
70830;SHT30;58451;51.550;7.208;2023-03-05T08:15:17;5.59;75.83
70830;SHT30;58451;51.550;7.208;2023-03-05T08:16:49;5.61;75.70
70830;SHT30;58451;51.550;7.208;2023-03-05T08:18:22;5.63;75.75
70830;SHT30;58451;51.550;7.208;2023-03-05T08:19:54;5.65;75.77
70830;SHT30;58451;51.550;7.208;2023-03-05T08:21:32;5.67;75.77
70830;SHT30;58451;51.550;7.208;2023-03-05T08:23:06;5.71;75.73
70830;SHT30;58451;51.550;7.208;2023-03-05T08:24:38;5.75;75.62
70830;SHT30;58451;51.550;7.208;2023-03-05T08:26:10;5.83;75.50
70830;SHT30;58451;51.550;7.208;2023-03-05T08:27:45;5.83;75.32
70830;SHT30;58451;51.550;7.208;2023-03-05T08:29:18;5.80;75.03
70830;SHT30;58451;51.550;7.208;2023-03-05T08:30:50;5.77;74.93
70830;SHT30;58451;51.550;7.208;2023-03-05T08:32:22;5.72;74.92
70830;SHT30;58451;51.550;7.208;2023-03-05T08:33:55;5.73;74.85
70830;SHT30;58451;51.550;7.208;2023-03-05T08:35:29;5.70;74.72
70830;SHT30;58451;51.550;7.208;2023-03-05T08:37:01;5.70;74.72
70830;SHT30;58451;51.550;7.208;2023-03-05T08:38:32;5.69;74.70
70830;SHT30;58451;51.550;7.208;2023-03-05T08:40:05;5.70;74.87
70830;SHT30;58451;51.550;7.208;2023-03-05T08:41:37;5.70;74.98
70830;SHT30;58451;51.550;7.208;2023-03-05T08:43:09;5.72;74.92
70830;SHT30;58451;51.550;7.208;2023-03-05T08:44:41;5.72;74.88
70830;SHT30;58451;51.550;7.208;2023-03-05T08:46:13;5.76;74.95
70830;SHT30;58451;51.550;7.208;2023-03-05T08:47:46;5.76;74.87
70830;SHT30;58451;51.550;7.208;2023-03-05T08:49:18;5.75;74.82
70830;SHT30;58451;51.550;7.208;2023-03-05T08:50:49;5.74;74.83
70830;SHT30;58451;51.550;7.208;2023-03-05T08:52:22;5.76;74.80
70830;SHT30;58451;51.550;7.208;2023-03-05T08:53:54;5.74;74.78
70830;SHT30;58451;51.550;7.208;2023-03-05T08:55:28;5.73;74.53
70830;SHT30;58451;51.550;7.208;2023-03-05T08:57:00;5.70;74.75
70830;SHT30;58451;51.550;7.208;2023-03-05T08:58:32;5.67;74.73
70830;SHT30;58451;51.550;7.208;2023-03-05T09:00:04;5.63;74.82
70830;SHT30;58451;51.550;7.208;2023-03-05T09:01:37;5.62;74.82
70830;SHT30;58451;51.550;7.208;2023-03-05T09:03:09;5.64;74.92
70830;SHT30;58451;51.550;7.208;2023-03-05T09:04:41;5.66;74.92
70830;SHT30;58451;51.550;7.208;2023-03-05T09:06:13;5.70;74.83
70830;SHT30;58451;51.550;7.208;2023-03-05T09:07:44;5.70;74.77
70830;SHT30;58451;51.550;7.208;2023-03-05T09:09:16;5.70;74.93
70830;SHT30;58451;51.550;7.208;2023-03-05T09:10:51;5.74;74.97
70830;SHT30;58451;51.550;7.208;2023-03-05T09:12:23;5.82;74.85
70830;SHT30;58451;51.550;7.208;2023-03-05T09:13:55;5.80;74.60
70830;SHT30;58451;51.550;7.208;2023-03-05T09:15:27;5.75;74.72
70830;SHT30;58451;51.550;7.208;2023-03-05T09:17:00;5.75;74.78
70830;SHT30;58451;51.550;7.208;2023-03-05T09:18:33;5.75;74.78
70830;SHT30;58451;51.550;7.208;2023-03-05T09:20:10;5.73;74.80
70830;SHT30;58451;51.550;7.208;2023-03-05T09:21:44;5.71;74.72
70830;SHT30;58451;51.550;7.208;2023-03-05T09:23:17;5.69;74.85
70830;SHT30;58451;51.550;7.208;2023-03-05T09:24:50;5.68;74.82
70830;SHT30;58451;51.550;7.208;2023-03-05T09:26:21;5.65;74.75
70830;SHT30;58451;51.550;7.208;2023-03-05T09:27:53;5.61;74.80
70830;SHT30;58451;51.550;7.208;2023-03-05T09:29:25;5.55;74.93
70830;SHT30;58451;51.550;7.208;2023-03-05T09:31:00;5.51;75.00
70830;SHT30;58451;51.550;7.208;2023-03-05T09:32:36;5.46;75.28
70830;SHT30;58451;51.550;7.208;2023-03-05T09:34:09;5.44;75.40
70830;SHT30;58451;51.550;7.208;2023-03-05T09:35:42;5.41;75.60
70830;SHT30;58451;51.550;7.208;2023-03-05T09:37:14;5.39;75.67
70830;SHT30;58451;51.550;7.208;2023-03-05T09:38:46;5.35;75.60
70830;SHT30;58451;51.550;7.208;2023-03-05T09:40:18;5.31;75.87
70830;SHT30;58451;51.550;7.208;2023-03-05T09:44:01;5.26;75.88
70830;SHT30;58451;51.550;7.208;2023-03-05T09:45:43;5.30;75.82
70830;SHT30;58451;51.550;7.208;2023-03-05T09:47:49;5.34;75.88
70830;SHT30;58451;51.550;7.208;2023-03-05T09:51:23;5.34;76.00
70830;SHT30;58451;51.550;7.208;2023-03-05T09:53:20;5.33;76.05
70830;SHT30;58451;51.550;7.208;2023-03-05T09:55:02;5.34;76.00
70830;SHT30;58451;51.550;7.208;2023-03-05T09:56:45;5.36;75.98
70830;SHT30;58451;51.550;7.208;2023-03-05T09:58:34;5.38;76.08
70830;SHT30;58451;51.550;7.208;2023-03-05T10:00:10;5.38;76.08
70830;SHT30;58451;51.550;7.208;2023-03-05T10:02:14;5.38;76.00
70830;SHT30;58451;51.550;7.208;2023-03-05T10:04:03;5.38;76.12
70830;SHT30;58451;51.550;7.208;2023-03-05T10:07:30;5.47;76.53